Time;durP1;ratioP1;P1;durP2;ratioP2;P2;SDS_P1;SDS_P2;PMS_P1;PMS_P2;Temp;Humidity;BMP_temperature;BMP_pressure;BME280_temperature;BME280_humidity;BME280_pressure;Samples;Min_cycle;Max_cycle;Signal;HPM_P1;HPM_P2
2022/07/25 00:03:42;;;;;;;6.10;4.30;;;;;;;17.00;59.27;98925.46;219338;1276;22549;-71
2022/07/25 00:08:45;;;;;;;4.80;4.20;;;;;;;16.93;59.36;98919.11;219126;1276;22556;-70
2022/07/25 00:13:50;;;;;;;5.60;4.60;;;;;;;16.81;59.68;98916.62;219237;1276;22703;-70
2022/07/25 00:19:18;;;;;;;5.00;4.50;;;;;;;16.72;59.96;98922.68;219228;1276;22561;-71
2022/07/25 00:24:21;;;;;;;4.60;3.60;;;;;;;16.68;60.21;98922.04;219178;1276;26499;-70
2022/07/25 00:29:23;;;;;;;4.50;3.70;;;;;;;16.63;60.26;98916.52;219242;1276;22767;-71
2022/07/25 00:34:38;;;;;;;5.40;4.10;;;;;;;16.57;60.42;98904.16;219049;1276;22700;-72
2022/07/25 00:39:40;;;;;;;4.20;3.70;;;;;;;16.52;60.70;98902.85;219100;1276;25264;-70
2022/07/25 00:44:43;;;;;;;4.40;3.60;;;;;;;16.47;60.99;98902.65;219218;1276;26569;-70
2022/07/25 00:49:45;;;;;;;5.30;4.00;;;;;;;16.41;61.25;98905.29;219164;1276;22577;-70
2022/07/25 00:54:48;;;;;;;6.80;4.70;;;;;;;16.35;61.31;98901.55;218680;1276;684119;-71
2022/07/25 00:59:53;;;;;;;4.70;4.30;;;;;;;16.26;61.40;98902.36;219055;1276;23185;-70
2022/07/25 01:04:57;;;;;;;4.60;4.10;;;;;;;16.17;61.66;98901.13;219161;1276;22753;-71
2022/07/25 01:10:00;;;;;;;5.80;4.80;;;;;;;16.13;62.17;98899.11;219205;1276;24280;-70
2022/07/25 01:15:03;;;;;;;4.90;4.40;;;;;;;16.10;62.15;98894.34;218991;1276;22540;-69
2022/07/25 01:20:16;;;;;;;4.80;4.10;;;;;;;16.05;62.32;98888.38;219008;1276;22538;-71
2022/07/25 01:25:20;;;;;;;5.70;4.20;;;;;;;16.03;62.38;98884.83;219210;1276;22965;-70
2022/07/25 01:30:24;;;;;;;4.50;4.10;;;;;;;16.03;62.48;98881.80;219311;1276;22592;-71
2022/07/25 01:35:26;;;;;;;5.70;4.30;;;;;;;16.03;62.51;98880.63;219245;1276;24244;-70
2022/07/25 01:40:28;;;;;;;5.00;4.00;;;;;;;16.00;62.91;98883.27;219162;1276;22546;-71
2022/07/25 01:45:34;;;;;;;5.30;4.20;;;;;;;15.96;62.94;98881.11;219204;1276;22555;-70
2022/07/25 01:50:39;;;;;;;4.60;4.10;;;;;;;15.95;63.20;98873.88;219320;1276;25365;-73
2022/07/25 01:55:44;;;;;;;5.30;4.30;;;;;;;15.91;63.56;98869.56;219236;1276;25498;-72
2022/07/25 02:01:02;;;;;;;4.40;4.00;;;;;;;15.86;63.84;98870.88;219349;1276;24233;-71
2022/07/25 02:06:27;;;;;;;4.10;3.70;;;;;;;15.80;64.28;98864.52;219260;1276;24390;-70
2022/07/25 02:11:59;;;;;;;5.60;3.90;;;;;;;15.72;64.54;98865.02;219214;1276;22638;-71
2022/07/25 02:18:06;;;;;;;4.80;3.80;;;;;;;15.62;64.81;98866.75;219166;1276;23831;-70
2022/07/25 02:23:34;;;;;;;4.20;3.60;;;;;;;15.53;64.95;98866.44;219263;1276;24186;-70
2022/07/25 02:35:14;;;;;;;4.50;3.90;;;;;;;15.34;65.32;98875.33;219121;1276;25255;-70
2022/07/25 02:40:24;;;;;;;5.20;4.10;;;;;;;15.31;65.62;98877.39;219260;1276;22637;-70
2022/07/25 02:45:26;;;;;;;4.60;4.10;;;;;;;15.27;65.75;98874.15;219183;1276;22664;-69
2022/07/25 02:50:35;;;;;;;5.50;3.80;;;;;;;15.26;65.89;98876.25;219153;1276;22614;-70
2022/07/25 02:56:01;;;;;;;5.30;3.90;;;;;;;15.23;65.97;98877.14;219345;1276;24145;-71
2022/07/25 03:01:03;;;;;;;4.50;4.00;;;;;;;15.19;66.05;98873.52;219209;1276;26347;-69
2022/07/25 03:06:18;;;;;;;4.50;3.90;;;;;;;15.16;66.18;98872.75;219428;1276;25387;-70
2022/07/25 03:11:26;;;;;;;5.60;3.90;;;;;;;15.14;66.32;98873.95;219197;1276;25249;-70
2022/07/25 03:16:31;;;;;;;4.80;3.80;;;;;;;15.10;66.52;98870.71;219344;1276;25350;-71
2022/07/25 03:21:57;;;;;;;5.20;4.40;;;;;;;15.07;66.59;98862.88;219156;1276;25255;-71
2022/07/25 03:27:02;;;;;;;6.50;4.60;;;;;;;15.02;66.55;98855.09;219257;1277;25485;-72
2022/07/25 03:32:28;;;;;;;6.40;4.70;;;;;;;14.97;66.73;98855.47;219152;1276;22540;-70
2022/07/25 03:37:42;;;;;;;5.80;4.30;;;;;;;15.01;66.89;98851.31;219288;1276;23983;-70
2022/07/25 03:43:16;;;;;;;5.00;4.40;;;;;;;15.30;67.16;98848.85;219291;1276;22715;-71
2022/07/25 03:48:27;;;;;;;5.30;4.80;;;;;;;15.74;67.04;98844.38;219288;1276;24276;-70
2022/07/25 04:05:12;;;;;;;5.50;5.00;;;;;;;16.85;65.44;98856.27;219299;1276;22541;-71
2022/07/25 04:10:25;;;;;;;6.00;5.00;;;;;;;17.02;65.10;98859.01;219307;1276;24162;-71
2022/07/25 04:15:37;;;;;;;6.00;4.60;;;;;;;17.08;64.98;98856.04;219365;1276;25136;-71
2022/07/25 04:21:01;;;;;;;5.80;4.50;;;;;;;17.07;64.83;98857.33;219494;1276;22752;-71
2022/07/25 04:26:32;;;;;;;6.70;4.90;;;;;;;16.96;64.64;98859.14;219043;1277;22794;-70
2022/07/25 04:31:58;;;;;;;6.10;5.00;;;;;;;16.87;64.84;98857.27;219255;1276;22543;-71
2022/07/25 04:37:21;;;;;;;7.80;5.00;;;;;;;16.81;65.09;98859.17;219111;1276;25379;-71
2022/07/25 04:43:04;;;;;;;5.90;5.30;;;;;;;16.82;65.25;98856.66;219294;1276;22567;-69
2022/07/25 04:48:11;;;;;;;7.70;5.50;;;;;;;16.88;65.48;98850.49;219501;1276;22557;-71
2022/07/25 04:53:24;;;;;;;6.70;4.90;;;;;;;16.99;65.74;98854.77;219268;1276;23970;-72
2022/07/25 04:58:49;;;;;;;6.10;5.50;;;;;;;17.10;65.93;98851.73;219230;1277;25384;-71
2022/07/25 05:03:52;;;;;;;7.00;5.30;;;;;;;17.20;66.13;98844.05;219365;1276;26519;-70
2022/07/25 05:09:05;;;;;;;7.00;5.30;;;;;;;17.31;66.43;98839.65;219361;1276;26438;-70
2022/07/25 05:14:26;;;;;;;6.10;5.50;;;;;;;17.42;66.45;98839.02;219998;1277;22674;-72
2022/07/25 05:19:58;;;;;;;9.00;5.30;;;;;;;17.52;66.58;98837.52;219223;1276;24200;-69
2022/07/25 05:25:29;;;;;;;8.40;5.80;;;;;;;17.68;66.58;98839.31;219286;1277;22557;-70
2022/07/25 05:30:38;;;;;;;6.90;5.50;;;;;;;17.84;66.61;98832.30;219064;1276;25262;-73
2022/07/25 05:35:57;;;;;;;6.70;5.30;;;;;;;18.01;66.38;98828.00;219421;1276;24310;-71
2022/07/25 05:41:13;;;;;;;8.50;6.80;;;;;;;18.24;66.45;98823.39;219262;1277;22744;-70
2022/07/25 05:46:38;;;;;;;7.40;5.60;;;;;;;18.45;66.28;98814.35;219167;1277;24275;-71
2022/07/25 05:51:54;;;;;;;8.00;5.00;;;;;;;18.64;65.74;98810.00;218754;1276;25251;-70
2022/07/25 05:56:57;;;;;;;6.10;4.30;;;;;;;18.78;64.52;98802.59;218782;1276;22564;-70
2022/07/25 06:02:01;;;;;;;3.90;3.50;;;;;;;18.87;63.34;98814.16;218791;1276;24271;-71
2022/07/25 06:07:20;;;;;;;7.70;4.50;;;;;;;18.93;62.96;98817.15;218704;1276;22535;-71
2022/07/25 06:12:22;;;;;;;5.10;3.80;;;;;;;19.07;62.63;98810.64;218698;1277;22537;-70
2022/07/25 06:17:25;;;;;;;5.70;4.30;;;;;;;19.20;62.27;98809.09;218875;1277;22558;-70
2022/07/25 06:22:33;;;;;;;7.00;4.30;;;;;;;19.34;62.26;98805.13;218889;1276;24270;-70
2022/07/25 06:27:46;;;;;;;7.40;3.90;;;;;;;19.49;61.87;98802.27;218846;1276;24479;-71
2022/07/25 06:33:00;;;;;;;5.80;3.80;;;;;;;19.69;61.78;98799.70;218657;1276;22550;-70
2022/07/25 06:38:08;;;;;;;4.30;3.80;;;;;;;19.94;61.58;98790.09;219068;1276;22560;-71
2022/07/25 06:43:13;;;;;;;5.30;3.80;;;;;;;20.16;60.96;98789.23;218881;1277;22512;-71
2022/07/25 06:48:27;;;;;;;5.10;3.30;;;;;;;20.34;60.08;98783.96;218998;1276;22609;-72
2022/07/25 06:53:38;;;;;;;4.90;3.50;;;;;;;20.51;60.05;98779.23;219017;1276;25359;-70
2022/07/25 06:58:40;;;;;;;3.40;3.10;;;;;;;20.77;59.67;98781.84;218853;1278;25505;-71
2022/07/25 07:03:43;;;;;;;5.10;2.70;;;;;;;20.98;58.86;98782.75;218706;1276;22643;-70
2022/07/25 07:08:47;;;;;;;3.20;2.90;;;;;;;21.13;58.01;98776.11;218828;1277;24291;-70
2022/07/25 07:13:50;;;;;;;4.60;2.90;;;;;;;21.29;57.38;98772.84;219184;1277;24363;-70
2022/07/25 07:18:52;;;;;;;3.70;2.50;;;;;;;21.50;56.84;98768.10;218716;1276;24341;-70
2022/07/25 07:23:58;;;;;;;2.70;2.50;;;;;;;21.67;56.22;98756.81;218853;1278;22538;-71
2022/07/25 07:29:04;;;;;;;2.90;2.60;;;;;;;21.92;55.78;98749.30;218695;1278;24168;-70
2022/07/25 07:34:16;;;;;;;3.30;2.60;;;;;;;22.09;54.47;98755.32;218886;1279;25334;-69
2022/07/25 07:39:18;;;;;;;2.60;2.40;;;;;;;22.24;54.02;98753.98;218797;1278;22568;-70
2022/07/25 07:44:31;;;;;;;6.50;2.80;;;;;;;22.51;53.60;98755.89;218876;1278;22539;-68
2022/07/25 07:49:33;;;;;;;4.60;2.50;;;;;;;22.81;53.13;98756.27;220490;1278;22561;-70
2022/07/25 08:00:00;;;;;;;5.40;4.60;;;;;;;23.35;51.04;98749.13;218724;1277;24357;-71
2022/07/25 08:05:20;;;;;;;11.50;4.10;;;;;;;23.51;50.04;98749.20;220376;1278;22621;-71
2022/07/25 08:10:33;;;;;;;6.60;2.40;;;;;;;23.75;49.33;98744.41;219222;1277;22683;-74
2022/07/25 08:15:59;;;;;;;13.50;3.40;;;;;;;23.92;48.20;98741.14;219076;1278;22587;-71
2022/07/25 08:21:10;;;;;;;96.20;12.60;;;;;;;24.14;48.51;98741.61;219149;1278;22538;-72
2022/07/25 08:26:30;;;;;;;3.10;2.20;;;;;;;24.36;47.50;98741.36;218896;1276;25478;-70
2022/07/25 08:31:33;;;;;;;3.30;2.10;;;;;;;24.55;47.15;98736.95;218933;1277;22658;-71
2022/07/25 08:36:35;;;;;;;3.30;1.60;;;;;;;24.69;45.44;98730.93;219010;1279;25375;-71
2022/07/25 08:41:43;;;;;;;2.90;1.70;;;;;;;24.80;45.13;98727.77;218921;1277;22700;-71
2022/07/25 08:47:10;;;;;;;16.90;3.50;;;;;;;25.00;44.67;98726.83;218999;1277;23801;-70
2022/07/25 08:52:14;;;;;;;3.90;2.30;;;;;;;25.22;44.79;98720.70;219017;1278;23824;-72
2022/07/25 08:57:16;;;;;;;4.10;2.30;;;;;;;25.44;44.41;98719.20;219018;1277;23804;-72
2022/07/25 09:02:19;;;;;;;1.90;1.80;;;;;;;25.67;44.32;98714.52;219183;1277;23181;-71
2022/07/25 09:07:42;;;;;;;13.20;11.50;;;;;;;25.87;43.66;98710.36;218833;1278;26514;-71
2022/07/25 09:12:56;;;;;;;2.60;2.40;;;;;;;26.01;43.05;98704.15;218486;1277;24908;-73
2022/07/25 09:18:04;;;;;;;2.50;1.50;;;;;;;26.16;43.02;98702.51;219148;1278;24347;-70
2022/07/25 09:23:34;;;;;;;3.20;1.60;;;;;;;26.27;42.22;98695.03;219176;1277;25382;-72
2022/07/25 09:28:54;;;;;;;1.80;1.60;;;;;;;26.36;41.55;98697.13;218941;1278;22543;-71
2022/07/25 09:34:00;;;;;;;2.80;1.70;;;;;;;26.35;41.11;98693.84;218891;1278;22566;-70
2022/07/25 09:39:05;;;;;;;1.70;1.60;;;;;;;26.38;40.84;98690.38;218949;1278;22605;-72
2022/07/25 09:44:29;;;;;;;2.10;1.90;;;;;;;26.44;40.95;98685.48;218775;1278;22754;-72
2022/07/25 09:49:51;;;;;;;201.60;180.90;;;;;;;26.56;40.49;98683.64;218804;1277;26507;-71
2022/07/25 09:54:53;;;;;;;15.50;13.70;;;;;;;26.65;40.47;98675.91;218825;1278;22547;-70
2022/07/25 09:59:59;;;;;;;3.00;2.60;;;;;;;26.75;39.93;98671.27;219016;1277;25266;-71
2022/07/25 10:05:14;;;;;;;1.50;1.30;;;;;;;26.87;39.24;98668.30;219120;1277;22658;-70
2022/07/25 10:10:27;;;;;;;2.50;1.80;;;;;;;26.96;39.19;98665.34;219180;1277;22549;-71
2022/07/25 10:15:49;;;;;;;16.10;14.40;;;;;;;27.08;39.46;98659.23;218996;1278;25622;-71
2022/07/25 10:20:54;;;;;;;10.50;8.10;;;;;;;27.24;38.67;98661.79;219009;1277;22598;-71
2022/07/25 10:25:59;;;;;;;2.30;1.80;;;;;;;27.38;37.55;98657.46;218953;1278;24309;-71
2022/07/25 10:31:02;;;;;;;8.60;7.70;;;;;;;27.50;37.21;98651.33;219017;1276;24316;-70
2022/07/25 10:36:14;;;;;;;2.00;1.70;;;;;;;27.60;37.26;98651.73;218685;1278;23014;-72
2022/07/25 10:41:16;;;;;;;1.40;1.20;;;;;;;27.77;37.23;98648.16;218864;1277;24348;-72
2022/07/25 10:46:26;;;;;;;1.70;1.60;;;;;;;27.98;37.31;98643.35;218922;1278;22633;-71
2022/07/25 10:51:34;;;;;;;15.40;3.10;;;;;;;28.16;37.06;98633.23;218977;1278;24438;-70
2022/07/25 10:56:55;;;;;;;4.70;4.10;;;;;;;28.25;37.12;98624.82;218957;1276;24480;-72
2022/07/25 11:01:59;;;;;;;1.40;1.20;;;;;;;28.34;36.26;98618.02;218919;1277;22956;-71
2022/07/25 11:07:13;;;;;;;1.30;1.20;;;;;;;28.46;35.46;98612.37;218785;1277;25363;-71
2022/07/25 11:12:18;;;;;;;2.10;1.70;;;;;;;28.62;35.48;98597.98;219007;1277;22544;-70
2022/07/25 11:17:26;;;;;;;1.60;1.30;;;;;;;28.71;34.88;98592.61;218941;1277;22613;-70
2022/07/25 11:22:30;;;;;;;1.80;1.50;;;;;;;28.78;34.85;98584.00;218827;1276;24232;-69
2022/07/25 11:27:33;;;;;;;3.80;2.90;;;;;;;28.86;34.43;98580.34;218936;1277;25571;-70
2022/07/25 11:32:49;;;;;;;2.30;1.90;;;;;;;28.95;34.33;98579.96;218979;1276;24692;-70
2022/07/25 11:38:13;;;;;;;3.10;1.80;;;;;;;28.96;33.96;98571.28;219004;1276;22550;-70
2022/07/25 11:43:20;;;;;;;1.60;1.30;;;;;;;29.03;33.88;98561.65;219276;1276;24353;-72
2022/07/25 11:48:33;;;;;;;7.60;1.70;;;;;;;29.08;33.42;98549.29;219421;1277;22550;-73
2022/07/25 11:53:53;;;;;;;1.70;1.60;;;;;;;29.10;34.66;98542.70;218903;1277;25231;-71
2022/07/25 11:59:00;;;;;;;1.40;1.30;;;;;;;29.18;36.60;98539.11;218869;1278;22736;-73
2022/07/25 12:04:17;;;;;;;2.60;2.00;;;;;;;29.08;37.05;98532.04;218973;1276;22657;-71
2022/07/25 12:09:21;;;;;;;1.80;1.30;;;;;;;28.78;35.74;98522.81;219251;1276;25256;-72
2022/07/25 12:14:23;;;;;;;1.40;1.30;;;;;;;28.51;35.42;98509.66;218791;1276;25263;-71
2022/07/25 12:19:25;;;;;;;6.50;2.10;;;;;;;28.34;35.37;98504.23;219161;1277;26522;-75
2022/07/25 12:24:27;;;;;;;1.90;1.40;;;;;;;28.29;34.95;98493.77;218867;1277;24325;-73
2022/07/25 12:29:29;;;;;;;13.60;12.20;;;;;;;28.31;35.13;98487.19;219020;1277;22545;-72
2022/07/25 12:34:31;;;;;;;2.60;1.70;;;;;;;28.44;34.95;98480.88;218946;1276;24282;-71
2022/07/25 12:39:34;;;;;;;2.00;1.30;;;;;;;28.68;34.80;98482.17;218940;1276;26243;-72
2022/07/25 12:44:36;;;;;;;1.40;1.30;;;;;;;28.90;34.54;98475.70;218954;1276;22560;-72
2022/07/25 12:49:39;;;;;;;1.90;1.70;;;;;;;29.08;34.08;98473.55;218916;1277;22560;-70
2022/07/25 12:54:49;;;;;;;2.20;1.60;;;;;;;29.31;33.45;98470.58;218749;1276;485345;-73
2022/07/25 12:59:59;;;;;;;1.50;1.40;;;;;;;29.47;32.95;98460.84;219268;1277;23826;-72
2022/07/25 13:05:02;;;;;;;1.60;1.50;;;;;;;29.48;32.23;98457.40;218836;1276;22707;-72
2022/07/25 13:10:05;;;;;;;1.30;1.20;;;;;;;29.49;32.67;98450.15;220334;1276;24402;-71
2022/07/25 13:15:08;;;;;;;1.50;1.40;;;;;;;29.53;32.74;98444.48;218876;1277;23827;-71
2022/07/25 13:20:11;;;;;;;1.40;1.20;;;;;;;29.60;32.85;98438.73;219074;1276;22559;-72
2022/07/25 13:25:13;;;;;;;1.50;1.30;;;;;;;29.71;32.76;98428.96;218720;1276;22584;-70
2022/07/25 13:30:18;;;;;;;1.60;1.20;;;;;;;29.85;32.47;98424.10;218557;1276;25065;-70
2022/07/25 13:35:23;;;;;;;2.10;1.30;;;;;;;30.06;31.87;98419.95;218790;1276;24237;-71
2022/07/25 13:40:41;;;;;;;4.40;3.60;;;;;;;30.20;31.47;98419.17;218831;1276;22739;-72
2022/07/25 13:45:56;;;;;;;4.40;1.40;;;;;;;30.21;31.28;98404.95;218812;1276;22787;-72
2022/07/25 13:50:58;;;;;;;1.00;1.00;;;;;;;30.23;30.82;98399.71;219163;1276;25380;-71
2022/07/25 13:56:01;;;;;;;2.40;1.30;;;;;;;30.28;30.82;98387.33;218837;1276;22894;-72
2022/07/25 14:01:16;;;;;;;1.10;1.10;;;;;;;30.46;30.58;98378.71;218658;1276;25377;-70
2022/07/25 14:06:28;;;;;;;1.10;1.10;;;;;;;30.60;30.42;98371.02;219300;1276;22566;-72
2022/07/25 14:11:30;;;;;;;3.50;1.60;;;;;;;30.68;29.85;98371.06;218914;1276;25679;-70
2022/07/25 14:16:36;;;;;;;1.40;1.10;;;;;;;30.73;29.87;98363.98;218938;1276;22551;-71
2022/07/25 14:21:49;;;;;;;1.20;1.10;;;;;;;30.82;29.94;98361.45;218915;1276;24399;-72
2022/07/25 14:26:53;;;;;;;1.10;1.10;;;;;;;30.86;29.49;98360.39;218992;1276;22635;-71
2022/07/25 14:31:56;;;;;;;1.20;1.10;;;;;;;30.91;29.46;98355.60;219200;1276;22563;-70
2022/07/25 14:36:59;;;;;;;1.80;1.20;;;;;;;30.96;29.09;98345.04;219204;1276;24231;-72
2022/07/25 14:42:12;;;;;;;;;;;;;;;;;;;;;
2022/07/25 14:47:40;;;;;;;1.30;1.20;;;;;;;31.00;29.45;98328.50;219246;1277;25354;-70
2022/07/25 14:52:56;;;;;;;1.10;1.10;;;;;;;31.08;29.22;98324.52;219407;1277;24906;-70
2022/07/25 14:58:01;;;;;;;1.30;1.20;;;;;;;31.17;28.73;98315.24;219357;1276;24211;-71
2022/07/25 15:03:03;;;;;;;0.90;0.90;;;;;;;31.21;29.07;98307.46;219439;1276;22550;-71
2022/07/25 15:08:05;;;;;;;1.50;1.40;;;;;;;31.29;28.55;98299.89;219176;1276;25368;-70
2022/07/25 15:13:13;;;;;;;1.30;1.20;;;;;;;31.33;28.27;98292.02;219439;1276;23000;-72
2022/07/25 15:18:32;;;;;;;2.20;1.30;;;;;;;31.40;28.21;98287.79;219353;1276;22661;-71
2022/07/25 15:23:56;;;;;;;2.80;1.30;;;;;;;31.42;28.19;98277.77;219206;1276;22552;-71
2022/07/25 15:28:59;;;;;;;1.50;1.20;;;;;;;31.39;28.25;98271.27;219408;1276;25467;-71
2022/07/25 15:34:04;;;;;;;1.40;1.30;;;;;;;31.35;28.23;98265.30;219207;1276;25386;-70
2022/07/25 15:39:07;;;;;;;1.60;1.40;;;;;;;31.30;28.19;98260.55;219322;1274;24236;-71
2022/07/25 15:44:10;;;;;;;1.70;1.30;;;;;;;31.32;28.29;98259.80;219215;1276;25484;-71
2022/07/25 15:49:14;;;;;;;1.50;1.40;;;;;;;31.36;28.25;98254.77;219281;1276;23333;-71
2022/07/25 15:54:16;;;;;;;1.50;1.30;;;;;;;31.41;28.37;98249.08;219275;1276;23435;-70
2022/07/25 15:59:18;;;;;;;1.50;1.40;;;;;;;31.45;28.24;98244.00;219327;1276;24313;-70
2022/07/25 16:04:21;;;;;;;1.50;1.40;;;;;;;31.46;28.40;98241.57;219224;1276;22537;-71
2022/07/25 16:09:24;;;;;;;1.50;1.40;;;;;;;31.49;28.33;98236.18;219431;1276;22724;-70
2022/07/25 16:14:26;;;;;;;1.70;1.60;;;;;;;31.51;28.21;98234.70;219516;1276;22560;-70
2022/07/25 16:19:28;;;;;;;1.40;1.30;;;;;;;31.53;27.97;98223.81;218930;1276;22558;-73
2022/07/25 16:24:31;;;;;;;2.00;1.50;;;;;;;31.55;28.06;98225.62;219286;1276;22630;-72
2022/07/25 16:29:33;;;;;;;1.60;1.50;;;;;;;31.53;28.20;98221.27;219264;1276;22544;-71
2022/07/25 16:34:36;;;;;;;2.20;1.70;;;;;;;31.51;28.14;98219.52;219107;1276;22706;-72
2022/07/25 16:39:39;;;;;;;2.40;1.60;;;;;;;31.47;28.22;98216.88;219244;1276;22733;-71
2022/07/25 16:44:41;;;;;;;2.20;1.60;;;;;;;31.47;28.10;98212.77;219332;1275;24260;-70
2022/07/25 16:49:43;;;;;;;2.00;1.60;;;;;;;31.41;28.06;98205.52;218973;1276;24215;-69
2022/07/25 16:54:46;;;;;;;4.70;1.80;;;;;;;31.38;28.15;98200.55;219306;1276;22589;-68
2022/07/25 16:59:59;;;;;;;1.90;1.80;;;;;;;31.34;28.30;98200.20;219183;1277;22703;-70
2022/07/25 17:05:02;;;;;;;2.20;1.60;;;;;;;31.33;28.28;98191.63;219449;1276;22614;-71
2022/07/25 17:10:05;;;;;;;2.40;1.80;;;;;;;31.28;28.32;98190.75;219316;1276;22574;-70
2022/07/25 17:15:08;;;;;;;2.30;2.10;;;;;;;31.27;28.57;98188.41;219462;1276;25409;-70
2022/07/25 17:20:14;;;;;;;2.30;2.00;;;;;;;31.26;28.65;98182.98;219463;1276;26477;-71
2022/07/25 17:25:17;;;;;;;2.50;1.70;;;;;;;31.20;28.77;98180.97;219336;1276;22704;-72
2022/07/25 17:30:20;;;;;;;3.20;2.30;;;;;;;31.19;29.18;98176.23;219343;1276;24228;-69
2022/07/25 17:35:25;;;;;;;5.20;2.30;;;;;;;31.22;29.08;98171.72;219148;1276;25373;-69
2022/07/25 17:40:27;;;;;;;3.20;2.00;;;;;;;31.17;29.39;98172.11;219352;1276;25306;-69
2022/07/25 17:45:29;;;;;;;3.80;2.30;;;;;;;31.01;29.60;98168.08;219173;1277;22585;-71
2022/07/25 17:50:32;;;;;;;3.00;2.40;;;;;;;30.70;30.16;98167.80;219435;1277;25353;-71
2022/07/25 17:55:35;;;;;;;7.50;3.00;;;;;;;30.43;30.83;98167.14;219504;1277;25316;-72
2022/07/25 18:00:40;;;;;;;5.40;2.60;;;;;;;30.12;31.20;98158.35;219343;1276;22830;-70
2022/07/25 18:05:43;;;;;;;3.30;2.70;;;;;;;29.79;31.53;98157.90;219806;1276;22625;-71
2022/07/25 18:10:45;;;;;;;4.90;4.50;;;;;;;29.53;32.14;98156.11;219403;1277;22700;-71
2022/07/25 18:15:49;;;;;;;5.90;2.60;;;;;;;29.30;32.86;98157.59;219358;1277;22627;-70
2022/07/25 18:20:51;;;;;;;4.60;2.90;;;;;;;29.06;33.08;98144.70;219473;1276;25373;-70
2022/07/25 18:25:54;;;;;;;3.30;2.40;;;;;;;28.74;33.69;98138.56;219383;1276;24291;-71
2022/07/25 18:31:04;;;;;;;5.10;2.80;;;;;;;28.46;34.39;98136.27;219296;1276;22633;-71
2022/07/25 18:36:07;;;;;;;5.40;2.80;;;;;;;28.20;34.82;98136.80;219318;1276;22576;-70
2022/07/25 18:41:10;;;;;;;3.60;2.70;;;;;;;27.96;35.20;98129.21;219295;1276;22544;-70
2022/07/25 18:46:31;;;;;;;8.90;3.10;;;;;;;27.69;35.89;98123.84;219398;1276;22795;-71
2022/07/25 18:51:34;;;;;;;4.70;3.30;;;;;;;27.43;36.39;98118.08;219387;1276;24559;-71
2022/07/25 18:56:37;;;;;;;4.90;3.70;;;;;;;27.20;36.73;98114.09;219557;1276;24265;-72
2022/07/25 19:01:39;;;;;;;4.20;3.00;;;;;;;26.97;37.13;98118.13;219279;1276;22559;-70
2022/07/25 19:06:42;;;;;;;4.30;3.10;;;;;;;26.76;37.58;98122.34;219413;1277;26444;-71
2022/07/25 19:11:46;;;;;;;4.50;3.50;;;;;;;26.58;37.99;98117.91;219330;1276;22567;-70
2022/07/25 19:16:49;;;;;;;3.50;3.20;;;;;;;26.41;38.34;98121.20;219344;1276;22552;-70
2022/07/25 19:21:51;;;;;;;3.40;2.60;;;;;;;26.21;38.60;98117.81;219354;1277;22559;-68
2022/07/25 19:26:57;;;;;;;3.60;3.20;;;;;;;26.05;38.78;98115.08;219334;1277;22660;-71
2022/07/25 19:31:59;;;;;;;3.20;2.80;;;;;;;25.89;39.03;98115.15;219352;1277;22604;-71
2022/07/25 19:37:02;;;;;;;4.00;2.80;;;;;;;25.74;39.20;98112.08;219194;1277;25255;-71
2022/07/25 19:42:07;;;;;;;4.10;3.00;;;;;;;25.57;39.30;98118.50;219265;1277;22558;-70
2022/07/25 19:47:09;;;;;;;4.80;3.50;;;;;;;25.37;39.74;98120.15;219319;1276;23830;-72
2022/07/25 19:52:13;;;;;;;5.40;3.60;;;;;;;25.17;40.09;98118.48;219215;1277;24457;-73
2022/07/25 19:57:18;;;;;;;5.70;3.60;;;;;;;24.96;40.50;98110.77;219267;1277;23864;-70
2022/07/25 20:02:35;;;;;;;4.10;3.20;;;;;;;24.81;40.62;98109.61;219277;1275;22586;-70
2022/07/25 20:07:48;;;;;;;5.00;3.50;;;;;;;24.64;40.97;98113.45;219308;1276;22570;-70
2022/07/25 20:12:50;;;;;;;4.00;3.30;;;;;;;24.51;41.18;98118.34;219316;1276;22722;-70
2022/07/25 20:17:59;;;;;;;3.60;3.30;;;;;;;24.38;41.72;98118.31;219309;1276;22577;-70
2022/07/25 20:23:02;;;;;;;3.90;3.40;;;;;;;24.26;42.05;98119.52;219274;1276;22567;-69
2022/07/25 20:28:05;;;;;;;4.90;3.20;;;;;;;24.14;42.19;98119.26;219449;1276;22547;-69
2022/07/25 20:33:12;;;;;;;3.40;3.00;;;;;;;24.00;42.24;98116.39;219292;1276;24263;-71
2022/07/25 20:38:17;;;;;;;5.40;3.50;;;;;;;23.88;42.39;98112.89;219315;1277;25409;-70
2022/07/25 20:43:23;;;;;;;7.10;4.00;;;;;;;23.80;42.93;98109.92;219205;1277;22562;-70
2022/07/25 20:48:56;;;;;;;4.80;3.40;;;;;;;23.69;43.18;98105.09;219169;1277;25373;-70
2022/07/25 20:54:14;;;;;;;3.60;3.20;;;;;;;23.56;43.27;98103.70;219554;1276;22602;-70
2022/07/25 20:59:22;;;;;;;3.80;3.50;;;;;;;23.43;43.52;98101.67;219399;1276;22617;-69
2022/07/25 21:04:25;;;;;;;3.80;3.10;;;;;;;23.29;43.84;98101.90;219288;1276;22702;-71
2022/07/25 21:09:28;;;;;;;5.20;3.30;;;;;;;23.16;44.12;98102.91;219128;1276;22565;-69
2022/07/25 21:14:47;;;;;;;;;;;;;;;23.07;44.36;98102.56;218969;1276;23840;-70
2022/07/25 21:20:15;;;;;;;3.00;2.60;;;;;;;23.03;44.55;98108.25;219113;1276;22672;-70
2022/07/25 21:25:24;;;;;;;3.40;2.80;;;;;;;23.00;44.75;98115.20;219094;1276;25588;-69
2022/07/25 21:30:27;;;;;;;3.40;2.80;;;;;;;22.94;44.83;98101.22;218983;1276;26398;-70
2022/07/25 21:35:47;;;;;;;3.80;2.80;;;;;;;22.86;44.99;98098.32;219111;1276;25383;-70
2022/07/25 21:40:58;;;;;;;3.70;2.70;;;;;;;22.79;45.38;98098.30;219040;1276;22585;-70
2022/07/25 21:46:03;;;;;;;3.50;2.80;;;;;;;22.75;45.47;98095.71;219209;1276;25505;-69
2022/07/25 21:51:09;;;;;;;5.20;3.10;;;;;;;22.71;45.62;98088.45;219289;1276;24112;-70
2022/07/25 21:56:27;;;;;;;5.10;3.30;;;;;;;22.63;45.79;98083.98;219227;1276;22566;-69
2022/07/25 22:01:55;;;;;;;4.10;3.30;;;;;;;22.54;46.09;98077.80;219239;1276;23489;-71
2022/07/25 22:06:58;;;;;;;3.40;2.90;;;;;;;22.44;46.20;98076.52;219350;1276;22629;-71
2022/07/25 22:12:08;;;;;;;3.40;3.00;;;;;;;22.35;46.51;98062.07;219469;1276;23821;-70
2022/07/25 22:17:31;;;;;;;3.60;3.10;;;;;;;22.26;46.75;98054.06;219442;1276;24234;-70
2022/07/25 22:22:51;;;;;;;3.80;3.00;;;;;;;22.20;46.91;98049.05;219285;1277;22553;-70
2022/07/25 22:27:53;;;;;;;3.50;2.60;;;;;;;22.12;47.16;98043.87;219257;1276;22542;-71
2022/07/25 22:33:15;;;;;;;3.30;2.80;;;;;;;22.05;47.34;98039.01;219216;1277;23652;-71
2022/07/25 22:38:42;;;;;;;3.00;2.70;;;;;;;21.98;47.67;98030.63;219222;1277;24276;-70
2022/07/25 22:44:12;;;;;;;3.40;2.80;;;;;;;21.93;47.85;98026.81;219506;1276;22644;-70
2022/07/25 22:49:23;;;;;;;4.40;2.80;;;;;;;21.88;48.07;98027.25;219297;1277;25193;-71
2022/07/25 22:54:29;;;;;;;4.30;2.90;;;;;;;21.81;48.20;98016.54;219424;1277;22560;-70
2022/07/25 22:59:31;;;;;;;3.80;2.90;;;;;;;21.76;48.38;98007.02;219313;1276;22708;-70
2022/07/25 23:04:54;;;;;;;6.40;2.70;;;;;;;21.71;48.60;98005.51;219287;1276;22578;-71
2022/07/25 23:10:02;;;;;;;4.30;3.00;;;;;;;21.66;48.78;98002.76;219255;1276;22538;-70
2022/07/25 23:15:19;;;;;;;4.10;3.30;;;;;;;21.62;49.07;98003.05;219316;1277;22697;-71
2022/07/25 23:26:01;;;;;;;3.50;3.20;;;;;;;21.56;49.26;98003.24;219336;1276;22577;-71
2022/07/25 23:31:03;;;;;;;4.20;2.90;;;;;;;21.55;49.49;97996.23;219418;1276;25453;-70
2022/07/25 23:36:18;;;;;;;3.30;2.90;;;;;;;21.54;49.56;98001.06;219319;1276;25381;-70
2022/07/25 23:41:21;;;;;;;3.20;2.90;;;;;;;21.53;49.74;97998.55;219255;1276;25297;-71
2022/07/25 23:46:24;;;;;;;3.30;2.70;;;;;;;21.51;50.00;98001.02;219215;1277;23235;-69
2022/07/25 23:51:31;;;;;;;4.10;2.70;;;;;;;21.48;50.06;97994.21;219263;1277;23842;-71
2022/07/25 23:56:33;;;;;;;4.40;3.00;;;;;;;21.43;50.14;97988.13;219443;1276;24319;-71
